createdAt,value
2018-03-15T00:01:23.647Z,1005.00
2018-03-15T00:11:20.574Z,1005.00
2018-03-15T00:21:16.532Z,1005.00
2018-03-15T00:31:14.023Z,1005.00
2018-03-15T00:41:10.809Z,1005.00
2018-03-15T00:51:07.605Z,1003.95
2018-03-15T01:01:03.459Z,1003.95
2018-03-15T01:11:00.343Z,1003.95
2018-03-15T01:20:56.551Z,1003.95
2018-03-15T01:30:54.240Z,1003.95
2018-03-15T01:40:51.748Z,1003.95
2018-03-15T01:50:48.453Z,1003.95
2018-03-15T02:00:34.047Z,1002.90
2018-03-15T02:10:30.483Z,1002.90
2018-03-15T02:20:28.017Z,1002.90
2018-03-15T02:30:26.215Z,1002.90
2018-03-15T02:40:22.998Z,1002.90
2018-03-15T02:50:20.825Z,1002.90
2018-03-15T03:00:16.661Z,1002.90
2018-03-15T03:10:11.550Z,1002.90
2018-03-15T03:20:06.407Z,1002.90
2018-03-15T03:30:03.310Z,1002.90
2018-03-15T03:40:00.679Z,1002.90
2018-03-15T03:49:57.928Z,1002.90
2018-03-15T03:59:56.206Z,1002.90
2018-03-15T04:09:53.200Z,1002.90
2018-03-15T04:19:50.023Z,1002.90
2018-03-15T04:29:48.622Z,1002.90
2018-03-15T04:39:46.218Z,1002.90
2018-03-15T04:49:43.686Z,1002.90
2018-03-15T04:59:42.262Z,1002.90
2018-03-15T05:09:39.217Z,1002.90
2018-03-15T05:19:36.618Z,1001.86
2018-03-15T05:29:35.189Z,1001.86
2018-03-15T05:39:30.243Z,1002.90
2018-03-15T05:49:27.714Z,1001.86
2018-03-15T05:59:25.868Z,1001.86
2018-03-15T06:09:23.702Z,1001.86
2018-03-15T06:19:21.531Z,1001.86
2018-03-15T06:29:19.242Z,1001.86
2018-03-15T06:39:16.663Z,1001.86
2018-03-15T06:49:14.893Z,1001.86
2018-03-15T06:59:11.198Z,1001.86
2018-03-15T07:09:05.119Z,1001.86
2018-03-15T07:19:02.173Z,1001.86
2018-03-15T07:29:00.882Z,1001.86
2018-03-15T07:38:58.564Z,1001.86
2018-03-15T07:48:51.833Z,1001.86
2018-03-15T07:58:46.784Z,1001.86
2018-03-15T08:08:43.463Z,1001.86
2018-03-15T08:18:41.083Z,1001.86
2018-03-15T08:28:39.885Z,1001.86
2018-03-15T08:38:33.986Z,1001.86
2018-03-15T08:48:27.245Z,1001.86
2018-03-15T08:58:25.333Z,1001.86
2018-03-15T09:08:15.633Z,1001.86
2018-03-15T09:18:10.379Z,1001.86
2018-03-15T09:28:07.191Z,1001.86
2018-03-15T09:38:05.281Z,1000.81
2018-03-15T09:48:01.819Z,1001.86
2018-03-15T09:57:55.961Z,1000.81
2018-03-15T10:07:46.240Z,1000.81
2018-03-15T10:17:40.233Z,1000.81
2018-03-15T10:27:33.630Z,1000.81
2018-03-15T10:37:28.646Z,1000.81
2018-03-15T10:47:22.561Z,1000.81
2018-03-15T10:57:19.955Z,1000.81
2018-03-15T11:07:16.945Z,1000.81
2018-03-15T11:17:10.102Z,1000.81
2018-03-15T11:27:06.951Z,1000.81
2018-03-15T11:37:04.507Z,1000.81
2018-03-15T11:46:58.013Z,999.77
2018-03-15T11:56:55.291Z,999.77
2018-03-15T12:06:53.379Z,999.77
2018-03-15T12:16:44.877Z,999.77
2018-03-15T12:26:40.916Z,999.77
2018-03-15T12:36:39.069Z,999.77
2018-03-15T12:46:36.113Z,999.77
2018-03-15T12:56:16.961Z,998.72
2018-03-15T13:06:14.254Z,998.72
2018-03-15T13:16:11.135Z,999.77
2018-03-15T13:26:07.930Z,998.72
2018-03-15T13:36:04.364Z,998.72
2018-03-15T13:45:59.018Z,998.72
2018-03-15T13:55:41.928Z,998.72
2018-03-15T14:05:22.293Z,998.72
2018-03-15T14:15:03.951Z,998.72
2018-03-15T14:24:33.834Z,998.72
2018-03-15T14:34:14.108Z,998.72
2018-03-15T14:44:00.449Z,998.72
2018-03-15T14:53:54.599Z,997.68
2018-03-15T15:03:48.609Z,997.68
2018-03-15T15:13:46.687Z,997.68
2018-03-15T15:23:36.448Z,997.68
2018-03-15T15:33:31.456Z,997.68
2018-03-15T15:43:27.082Z,997.68
2018-03-15T15:53:24.519Z,997.68
2018-03-15T16:03:21.716Z,997.68
2018-03-15T16:13:16.785Z,997.68
2018-03-15T16:23:09.480Z,997.68
2018-03-15T16:33:06.285Z,997.68
2018-03-15T16:43:02.455Z,997.68
2018-03-15T16:52:58.308Z,997.68
2018-03-15T17:02:53.866Z,997.68
2018-03-15T17:12:50.659Z,997.68
2018-03-15T17:22:45.927Z,997.68
2018-03-15T17:32:41.983Z,997.68
2018-03-15T17:42:37.565Z,998.72
2018-03-15T17:52:33.854Z,998.72
2018-03-15T18:02:31.853Z,997.68
2018-03-15T18:12:29.220Z,997.68
2018-03-15T18:22:27.357Z,997.68
2018-03-15T18:32:21.410Z,998.72
2018-03-15T18:42:14.034Z,997.68
2018-03-15T18:52:07.325Z,998.72
2018-03-15T19:02:01.695Z,998.72
2018-03-15T19:11:58.752Z,997.68
2018-03-15T19:21:53.490Z,998.72
2018-03-15T19:31:48.867Z,998.72
2018-03-15T19:41:44.828Z,998.72
2018-03-15T19:51:36.229Z,998.72
2018-03-15T20:01:33.133Z,998.72
2018-03-15T20:11:27.599Z,998.72
2018-03-15T20:21:26.208Z,998.72
2018-03-15T20:31:20.555Z,998.72
2018-03-15T20:41:17.756Z,998.72
2018-03-15T20:51:13.745Z,998.72
2018-03-15T21:01:10.293Z,998.72
2018-03-15T21:11:08.179Z,998.72
2018-03-15T21:21:05.737Z,998.72
2018-03-15T21:31:03.262Z,998.72
2018-03-15T21:40:58.761Z,998.72
2018-03-15T21:50:56.750Z,998.72
2018-03-15T22:00:53.474Z,998.72
2018-03-15T22:10:50.360Z,998.72
2018-03-15T22:20:46.558Z,998.72
2018-03-15T22:30:44.585Z,998.72
2018-03-15T22:40:41.487Z,998.72
2018-03-15T22:50:38.465Z,998.72
2018-03-15T23:00:36.506Z,997.68
2018-03-15T23:10:33.813Z,997.68
2018-03-15T23:20:31.798Z,997.68
2018-03-15T23:30:30.462Z,997.68
2018-03-15T23:40:26.799Z,997.68
2018-03-15T23:50:23.487Z,997.68
